Aviation Digital Data Service (ADDS)

Output produced by METARs form (0305 UTC 17 January 2018)
found at http://www.aviationweather.gov/adds/metars/
 
KPIT 170251Z 27004KT 9SM SCT017 BKN060 M12/M15 A3043 RMK AO2 SNE48 SLP333 P0000 60000 T11221150 51013
K2G4 170255Z AUTO 29007KT 3SM OVC003 M10/M11 A3025 RMK AO1
KAFJ 170256Z AUTO 24005KT 9SM -SN OVC017 M11/M14 A3047 RMK AO2 SLP337 P0000 60000 T11111139 51013 FZRANO
KAGC 170253Z 30003KT 10SM OVC018 M11/M14 A3041 RMK AO2 SLP326 60000 T11111144 51012
KBTP 170256Z AUTO 24003KT 9SM CLR M15/M17 A3043 RMK AO2 SLP334 T11501172 51014 FZRANO
KBVI 162347Z 29004KT 10SM -SN SCT011 OVC065 M12/M15 A3039
KDUJ 170253Z AUTO 25011KT 4SM HZ FEW012 OVC050 M10/M13 A3032 RMK AO2 SNB33E43 SLP296 P0000 60000 T11001128 53012
KFKL 170256Z AUTO 23006KT 9SM -SN OVC023 M15/M17 A3038 RMK AO2 SNB43 SLP321 P0000 60000 T11501167 51012 FZRANO
KHLG 170253Z 24005KT 10SM FEW016 M14/M17 A3045 RMK AO2 SLP337 I3000 T11441172 51014
KIDI 170255Z AUTO 30006G12KT 4SM BR OVC012 M09/M11 A3042 RMK A01
KLBE 170250Z 28008KT 8SM -SN BKN033 M09/M12 A3043
KMGW 170253Z VRB03KT 1 3/4SM -SN SCT015 OVC020 M08/M11 A3044 RMK AO2 SLP325 P0000 60002 T10831111 53007
KPHD 170253Z AUTO 00000KT 7SM CLR M18/M19 A3050 RMK AO2 SLP349 T11781194 51012
KUCP 170256Z AUTO 22003KT 9SM FEW007 SCT012 M17/M19 A3045 RMK AO2 SLP350 T11671189 51008
KZZV 170253Z AUTO 24003KT 10SM OVC020 M14/M18 A3051 RMK AO2 SLP350 T11441183 51009